sensor_id;sensor_type;location;lat;lon;timestamp;pressure;altitude;pressure_sealevel;temperature;humidity
46724;BME280;32463;48.298;11.620;2023-05-16T00:01:08;95894.44;;;10.17;100.00
46724;BME280;32463;48.298;11.620;2023-05-16T00:03:35;95888.78;;;10.22;100.00
46724;BME280;32463;48.298;11.620;2023-05-16T00:06:03;95885.84;;;10.17;100.00
46724;BME280;32463;48.298;11.620;2023-05-16T00:08:33;95893.63;;;10.17;100.00
46724;BME280;32463;48.298;11.620;2023-05-16T00:11:00;95891.34;;;10.13;100.00
46724;BME280;32463;48.298;11.620;2023-05-16T00:13:28;95897.84;;;10.09;100.00
46724;BME280;32463;48.298;11.620;2023-05-16T00:15:55;95902.56;;;10.06;100.00
46724;BME280;32463;48.298;11.620;2023-05-16T00:18:22;95893.34;;;10.03;100.00
46724;BME280;32463;48.298;11.620;2023-05-16T00:20:51;95902.09;;;10.02;100.00
46724;BME280;32463;48.298;11.620;2023-05-16T00:23:19;95893.69;;;10.00;100.00
46724;BME280;32463;48.298;11.620;2023-05-16T00:25:47;95891.72;;;10.02;100.00
46724;BME280;32463;48.298;11.620;2023-05-16T00:28:14;95898.38;;;10.05;100.00
46724;BME280;32463;48.298;11.620;2023-05-16T00:30:41;95896.59;;;10.05;100.00
46724;BME280;32463;48.298;11.620;2023-05-16T00:33:07;95883.16;;;10.02;100.00
46724;BME280;32463;48.298;11.620;2023-05-16T00:35:34;95889.47;;;9.99;100.00
46724;BME280;32463;48.298;11.620;2023-05-16T00:38:00;95888.81;;;9.97;100.00
46724;BME280;32463;48.298;11.620;2023-05-16T00:40:26;95887.53;;;9.93;100.00
46724;BME280;32463;48.298;11.620;2023-05-16T00:42:53;95891.91;;;9.93;100.00
46724;BME280;32463;48.298;11.620;2023-05-16T00:45:19;95892.41;;;9.88;100.00
46724;BME280;32463;48.298;11.620;2023-05-16T00:47:46;95892.72;;;9.85;100.00
46724;BME280;32463;48.298;11.620;2023-05-16T00:50:13;95889.31;;;9.93;100.00
46724;BME280;32463;48.298;11.620;2023-05-16T00:52:39;95892.06;;;9.91;100.00
46724;BME280;32463;48.298;11.620;2023-05-16T00:55:06;95891.75;;;9.94;100.00
46724;BME280;32463;48.298;11.620;2023-05-16T00:57:36;95885.59;;;9.87;100.00
46724;BME280;32463;48.298;11.620;2023-05-16T01:00:09;95885.28;;;9.90;100.00
46724;BME280;32463;48.298;11.620;2023-05-16T01:02:36;95888.53;;;9.84;100.00
46724;BME280;32463;48.298;11.620;2023-05-16T01:05:03;95886.94;;;9.75;100.00
46724;BME280;32463;48.298;11.620;2023-05-16T01:07:31;95893.56;;;9.69;100.00
46724;BME280;32463;48.298;11.620;2023-05-16T01:09:58;95889.03;;;9.63;100.00
46724;BME280;32463;48.298;11.620;2023-05-16T01:12:36;95892.59;;;9.62;100.00
46724;BME280;32463;48.298;11.620;2023-05-16T01:15:17;95892.44;;;9.56;100.00
46724;BME280;32463;48.298;11.620;2023-05-16T01:18:07;95892.78;;;9.61;100.00
46724;BME280;32463;48.298;11.620;2023-05-16T01:20:55;95888.88;;;9.57;100.00
46724;BME280;32463;48.298;11.620;2023-05-16T01:23:48;95885.31;;;9.58;100.00
46724;BME280;32463;48.298;11.620;2023-05-16T01:26:25;95885.31;;;9.58;100.00
46724;BME280;32463;48.298;11.620;2023-05-16T01:28:53;95885.97;;;9.60;100.00
46724;BME280;32463;48.298;11.620;2023-05-16T01:31:21;95882.09;;;9.56;100.00
46724;BME280;32463;48.298;11.620;2023-05-16T01:33:48;95874.31;;;9.56;100.00
46724;BME280;32463;48.298;11.620;2023-05-16T01:42:04;95864.34;;;9.44;100.00
46724;BME280;32463;48.298;11.620;2023-05-16T01:47:14;95870.16;;;9.38;100.00
46724;BME280;32463;48.298;11.620;2023-05-16T01:50:06;95863.69;;;9.34;100.00
46724;BME280;32463;48.298;11.620;2023-05-16T01:55:15;95866.41;;;9.25;100.00
46724;BME280;32463;48.298;11.620;2023-05-16T01:57:44;95863.19;;;9.23;100.00
46724;BME280;32463;48.298;11.620;2023-05-16T02:00:11;95870.13;;;9.22;100.00
46724;BME280;32463;48.298;11.620;2023-05-16T02:02:38;95867.88;;;9.19;100.00
46724;BME280;32463;48.298;11.620;2023-05-16T02:05:05;95864.47;;;9.19;100.00
46724;BME280;32463;48.298;11.620;2023-05-16T02:07:32;95865.28;;;9.19;100.00
46724;BME280;32463;48.298;11.620;2023-05-16T02:09:59;95867.25;;;9.17;100.00
46724;BME280;32463;48.298;11.620;2023-05-16T02:12:25;95860.47;;;9.16;100.00
46724;BME280;32463;48.298;11.620;2023-05-16T02:14:52;95867.56;;;9.14;100.00
46724;BME280;32463;48.298;11.620;2023-05-16T02:17:18;95860.47;;;9.16;100.00
46724;BME280;32463;48.298;11.620;2023-05-16T02:19:45;95865.63;;;9.16;100.00
46724;BME280;32463;48.298;11.620;2023-05-16T02:22:11;95855.94;;;9.10;100.00
46724;BME280;32463;48.298;11.620;2023-05-16T02:24:38;95872.75;;;9.14;100.00
46724;BME280;32463;48.298;11.620;2023-05-16T02:27:04;95862.72;;;9.11;100.00
46724;BME280;32463;48.298;11.620;2023-05-16T02:29:31;95866.28;;;9.10;100.00
46724;BME280;32463;48.298;11.620;2023-05-16T02:31:58;95869.00;;;9.08;100.00
46724;BME280;32463;48.298;11.620;2023-05-16T02:34:24;95871.44;;;9.10;100.00
46724;BME280;32463;48.298;11.620;2023-05-16T02:36:51;95868.53;;;9.05;100.00
46724;BME280;32463;48.298;11.620;2023-05-16T02:39:17;95878.53;;;9.08;100.00
46724;BME280;32463;48.298;11.620;2023-05-16T02:41:43;95878.22;;;9.11;100.00
46724;BME280;32463;48.298;11.620;2023-05-16T02:44:10;95876.94;;;9.15;100.00
46724;BME280;32463;48.298;11.620;2023-05-16T02:46:36;95880.78;;;9.19;100.00
46724;BME280;32463;48.298;11.620;2023-05-16T02:49:03;95881.28;;;9.23;100.00
46724;BME280;32463;48.298;11.620;2023-05-16T02:51:29;95877.72;;;9.24;100.00
46724;BME280;32463;48.298;11.620;2023-05-16T02:53:56;95882.91;;;9.24;100.00
46724;BME280;32463;48.298;11.620;2023-05-16T02:56:23;95883.41;;;9.27;100.00
46724;BME280;32463;48.298;11.620;2023-05-16T02:58:52;95883.41;;;9.27;100.00
46724;BME280;32463;48.298;11.620;2023-05-16T03:01:19;95879.84;;;9.28;100.00
46724;BME280;32463;48.298;11.620;2023-05-16T03:03:45;95876.75;;;9.25;100.00
46724;BME280;32463;48.298;11.620;2023-05-16T03:06:11;95873.69;;;9.21;100.00
46724;BME280;32463;48.298;11.620;2023-05-16T03:08:38;95874.34;;;9.15;100.00
46724;BME280;32463;48.298;11.620;2023-05-16T03:11:04;95872.41;;;9.17;100.00
46724;BME280;32463;48.298;11.620;2023-05-16T03:13:31;95879.53;;;9.15;100.00
46724;BME280;32463;48.298;11.620;2023-05-16T03:15:57;95872.09;;;9.12;100.00
46724;BME280;32463;48.298;11.620;2023-05-16T03:18:24;95871.94;;;9.14;100.00
46724;BME280;32463;48.298;11.620;2023-05-16T03:20:51;95867.22;;;9.09;100.00
46724;BME280;32463;48.298;11.620;2023-05-16T03:23:21;95868.53;;;9.13;100.00
46724;BME280;32463;48.298;11.620;2023-05-16T03:25:47;95866.28;;;9.10;100.00
46724;BME280;32463;48.298;11.620;2023-05-16T03:28:15;95873.38;;;9.08;100.00
46724;BME280;32463;48.298;11.620;2023-05-16T03:30:42;95873.69;;;9.05;100.00
46724;BME280;32463;48.298;11.620;2023-05-16T03:33:09;95870.28;;;8.96;100.00
46724;BME280;32463;48.298;11.620;2023-05-16T03:35:35;95870.44;;;8.95;100.00
46724;BME280;32463;48.298;11.620;2023-05-16T03:38:02;95875.28;;;8.98;100.00
46724;BME280;32463;48.298;11.620;2023-05-16T03:40:29;95871.41;;;8.94;100.00
46724;BME280;32463;48.298;11.620;2023-05-16T03:42:55;95863.81;;;8.92;100.00
46724;BME280;32463;48.298;11.620;2023-05-16T03:45:22;95871.41;;;8.94;100.00
46724;BME280;32463;48.298;11.620;2023-05-16T03:47:48;95877.22;;;8.96;100.00
46724;BME280;32463;48.298;11.620;2023-05-16T03:50:15;95871.41;;;8.94;100.00
46724;BME280;32463;48.298;11.620;2023-05-16T03:52:42;95871.41;;;8.94;100.00
46724;BME280;32463;48.298;11.620;2023-05-16T03:55:08;95877.38;;;8.94;100.00
46724;BME280;32463;48.298;11.620;2023-05-16T03:57:38;95881.75;;;8.94;100.00
46724;BME280;32463;48.298;11.620;2023-05-16T04:00:05;95871.25;;;8.95;100.00
46724;BME280;32463;48.298;11.620;2023-05-16T04:02:33;95870.28;;;8.96;100.00
46724;BME280;32463;48.298;11.620;2023-05-16T04:04:59;95871.41;;;8.94;100.00
46724;BME280;32463;48.298;11.620;2023-05-16T04:07:26;95867.03;;;8.94;100.00
46724;BME280;32463;48.298;11.620;2023-05-16T04:09:53;95864.78;;;8.99;100.00
46724;BME280;32463;48.298;11.620;2023-05-16T04:12:20;95868.84;;;9.02;100.00
46724;BME280;32463;48.298;11.620;2023-05-16T04:14:47;95860.44;;;9.08;100.00
46724;BME280;32463;48.298;11.620;2023-05-16T04:17:13;95873.56;;;9.15;100.00
46724;BME280;32463;48.298;11.620;2023-05-16T04:19:40;95869.34;;;9.14;100.00
46724;BME280;32463;48.298;11.620;2023-05-16T04:22:06;95869.50;;;9.12;100.00
46724;BME280;32463;48.298;11.620;2023-05-16T04:24:33;95864.19;;;9.14;100.00
46724;BME280;32463;48.298;11.620;2023-05-16T04:26:59;95879.50;;;9.23;100.00
46724;BME280;32463;48.298;11.620;2023-05-16T04:29:26;95868.19;;;9.24;100.00
46724;BME280;32463;48.298;11.620;2023-05-16T04:31:53;95874.84;;;9.35;100.00
46724;BME280;32463;48.298;11.620;2023-05-16T04:34:19;95874.03;;;9.42;100.00
46724;BME280;32463;48.298;11.620;2023-05-16T04:36:47;95874.69;;;9.44;100.00
46724;BME280;32463;48.298;11.620;2023-05-16T04:39:13;95868.84;;;9.42;100.00
46724;BME280;32463;48.298;11.620;2023-05-16T04:41:40;95874.34;;;9.48;100.00
46724;BME280;32463;48.298;11.620;2023-05-16T04:44:06;95882.28;;;9.46;100.00
46724;BME280;32463;48.298;11.620;2023-05-16T04:46:33;95877.44;;;9.43;100.00
46724;BME280;32463;48.298;11.620;2023-05-16T04:48:59;95885.03;;;9.44;100.00
46724;BME280;32463;48.298;11.620;2023-05-16T04:51:25;95874.19;;;9.41;100.00
46724;BME280;32463;48.298;11.620;2023-05-16T04:53:52;95874.50;;;9.38;100.00
46724;BME280;32463;48.298;11.620;2023-05-16T04:56:19;95879.84;;;9.44;100.00
46724;BME280;32463;48.298;11.620;2023-05-16T04:58:46;95888.41;;;9.53;100.00
46724;BME280;32463;48.298;11.620;2023-05-16T05:01:13;95884.19;;;9.60;100.00
46724;BME280;32463;48.298;11.620;2023-05-16T05:03:40;95884.34;;;9.67;100.00
46724;BME280;32463;48.298;11.620;2023-05-16T05:06:06;95894.38;;;9.70;100.00
46724;BME280;32463;48.298;11.620;2023-05-16T05:08:32;95880.78;;;9.76;100.00
46724;BME280;32463;48.298;11.620;2023-05-16T05:10:59;95884.31;;;9.83;100.00
46724;BME280;32463;48.298;11.620;2023-05-16T05:13:25;95884.63;;;9.96;100.00
46724;BME280;32463;48.298;11.620;2023-05-16T05:15:53;95880.41;;;10.03;100.00
46724;BME280;32463;48.298;11.620;2023-05-16T05:18:19;95884.22;;;10.16;100.00
46724;BME280;32463;48.298;11.620;2023-05-16T05:20:45;95876.47;;;10.24;100.00
46724;BME280;32463;48.298;11.620;2023-05-16T05:23:12;95888.38;;;10.41;100.00
46724;BME280;32463;48.298;11.620;2023-05-16T05:25:38;95883.91;;;10.35;100.00
46724;BME280;32463;48.298;11.620;2023-05-16T05:28:05;95888.75;;;10.38;100.00
46724;BME280;32463;48.298;11.620;2023-05-16T05:30:31;95882.63;;;10.14;100.00
46724;BME280;32463;48.298;11.620;2023-05-16T05:32:58;95887.16;;;10.12;100.00
46724;BME280;32463;48.298;11.620;2023-05-16T05:35:24;95892.66;;;10.18;100.00
46724;BME280;32463;48.298;11.620;2023-05-16T05:37:51;95887.66;;;10.24;100.00
46724;BME280;32463;48.298;11.620;2023-05-16T05:40:17;95876.16;;;10.27;100.00
46724;BME280;32463;48.298;11.620;2023-05-16T05:42:43;95883.56;;;10.38;100.00
46724;BME280;32463;48.298;11.620;2023-05-16T05:45:10;95877.56;;;10.37;100.00
46724;BME280;32463;48.298;11.620;2023-05-16T05:47:36;95877.69;;;10.44;100.00
46724;BME280;32463;48.298;11.620;2023-05-16T05:50:04;95873.94;;;10.77;100.00
46724;BME280;32463;48.298;11.620;2023-05-16T05:52:31;95872.34;;;10.76;100.00
46724;BME280;32463;48.298;11.620;2023-05-16T05:54:57;95876.72;;;10.76;100.00
46724;BME280;32463;48.298;11.620;2023-05-16T05:57:24;95872.63;;;10.82;100.00
46724;BME280;32463;48.298;11.620;2023-05-16T05:59:50;95863.84;;;10.91;100.00
46724;BME280;32463;48.298;11.620;2023-05-16T06:02:17;95874.16;;;10.99;100.00
46724;BME280;32463;48.298;11.620;2023-05-16T06:04:43;95878.25;;;11.16;100.00
46724;BME280;32463;48.298;11.620;2023-05-16T06:07:10;95873.50;;;11.42;100.00
46724;BME280;32463;48.298;11.620;2023-05-16T06:09:37;95872.94;;;11.70;100.00
46724;BME280;32463;48.298;11.620;2023-05-16T06:12:03;95869.88;;;11.89;100.00
46724;BME280;32463;48.298;11.620;2023-05-16T06:14:30;95884.66;;;12.18;100.00
46724;BME280;32463;48.298;11.620;2023-05-16T06:16:56;95869.69;;;12.35;100.00
46724;BME280;32463;48.298;11.620;2023-05-16T06:19:23;95876.84;;;12.33;100.00
46724;BME280;32463;48.298;11.620;2023-05-16T06:21:52;95863.13;;;12.39;100.00
46724;BME280;32463;48.298;11.620;2023-05-16T06:24:19;95872.47;;;12.33;100.00
46724;BME280;32463;48.298;11.620;2023-05-16T06:26:45;95867.16;;;12.27;100.00
46724;BME280;32463;48.298;11.620;2023-05-16T06:29:14;95875.31;;;12.38;100.00
46724;BME280;32463;48.298;11.620;2023-05-16T06:31:41;95866.63;;;12.46;100.00
46724;BME280;32463;48.298;11.620;2023-05-16T06:34:08;95872.63;;;12.32;100.00
46724;BME280;32463;48.298;11.620;2023-05-16T06:36:34;95875.94;;;11.96;100.00
46724;BME280;32463;48.298;11.620;2023-05-16T06:39:00;95881.34;;;12.09;100.00
46724;BME280;32463;48.298;11.620;2023-05-16T06:41:28;95880.09;;;12.20;100.00
46724;BME280;32463;48.298;11.620;2023-05-16T06:43:55;95879.00;;;12.14;100.00
46724;BME280;32463;48.298;11.620;2023-05-16T06:46:22;95875.94;;;12.26;100.00
46724;BME280;32463;48.298;11.620;2023-05-16T06:48:48;95875.88;;;12.34;100.00
46724;BME280;32463;48.298;11.620;2023-05-16T06:51:15;95884.00;;;12.60;100.00
46724;BME280;32463;48.298;11.620;2023-05-16T06:53:41;95874.84;;;12.64;100.00
46724;BME280;32463;48.298;11.620;2023-05-16T06:56:08;95877.34;;;12.72;100.00
46724;BME280;32463;48.298;11.620;2023-05-16T06:58:34;95864.44;;;12.64;100.00
46724;BME280;32463;48.298;11.620;2023-05-16T07:01:01;95869.34;;;12.74;100.00
46724;BME280;32463;48.298;11.620;2023-05-16T07:03:27;95870.09;;;12.89;100.00
46724;BME280;32463;48.298;11.620;2023-05-16T07:05:54;95867.00;;;12.79;100.00
46724;BME280;32463;48.298;11.620;2023-05-16T07:08:23;95864.63;;;12.63;100.00
46724;BME280;32463;48.298;11.620;2023-05-16T07:10:49;95871.78;;;12.61;100.00
46724;BME280;32463;48.298;11.620;2023-05-16T07:13:16;95866.09;;;12.51;100.00
46724;BME280;32463;48.298;11.620;2023-05-16T07:15:42;95873.88;;;12.51;100.00
46724;BME280;32463;48.298;11.620;2023-05-16T07:18:09;95872.09;;;12.36;100.00
46724;BME280;32463;48.298;11.620;2023-05-16T07:20:35;95871.03;;;12.01;100.00
46724;BME280;32463;48.298;11.620;2023-05-16T07:23:02;95881.13;;;11.96;100.00
46724;BME280;32463;48.298;11.620;2023-05-16T07:25:28;95881.06;;;11.90;100.00
46724;BME280;32463;48.298;11.620;2023-05-16T07:27:55;95877.38;;;11.84;100.00
46724;BME280;32463;48.298;11.620;2023-05-16T07:30:21;95882.56;;;11.84;100.00
46724;BME280;32463;48.298;11.620;2023-05-16T07:32:48;95867.22;;;11.74;100.00
46724;BME280;32463;48.298;11.620;2023-05-16T07:35:14;95881.41;;;11.64;100.00
46724;BME280;32463;48.298;11.620;2023-05-16T07:37:41;95883.50;;;11.68;100.00
46724;BME280;32463;48.298;11.620;2023-05-16T07:40:11;95881.41;;;11.64;100.00
46724;BME280;32463;48.298;11.620;2023-05-16T07:42:38;95887.81;;;11.61;100.00
46724;BME280;32463;48.298;11.620;2023-05-16T07:45:06;95890.22;;;11.40;100.00
46724;BME280;32463;48.298;11.620;2023-05-16T07:47:32;95893.47;;;11.42;100.00
46724;BME280;32463;48.298;11.620;2023-05-16T07:49:59;95900.16;;;11.36;100.00
46724;BME280;32463;48.298;11.620;2023-05-16T07:52:26;95897.38;;;11.38;100.00
46724;BME280;32463;48.298;11.620;2023-05-16T07:54:52;95902.56;;;11.38;100.00
46724;BME280;32463;48.298;11.620;2023-05-16T07:57:19;95903.38;;;11.38;100.00
46724;BME280;32463;48.298;11.620;2023-05-16T07:59:45;95910.88;;;11.33;100.00
46724;BME280;32463;48.298;11.620;2023-05-16T08:02:12;95908.91;;;11.35;100.00
46724;BME280;32463;48.298;11.620;2023-05-16T08:04:39;95909.88;;;11.34;100.00
46724;BME280;32463;48.298;11.620;2023-05-16T08:07:09;95902.91;;;11.35;100.00
46724;BME280;32463;48.298;11.620;2023-05-16T08:09:35;95907.94;;;11.36;100.00
46724;BME280;32463;48.298;11.620;2023-05-16T08:12:02;95902.91;;;11.35;100.00
46724;BME280;32463;48.298;11.620;2023-05-16T08:14:29;95903.72;;;11.35;100.00
46724;BME280;32463;48.298;11.620;2023-05-16T08:16:58;95908.91;;;11.35;100.00
46724;BME280;32463;48.298;11.620;2023-05-16T08:19:24;95910.19;;;11.39;100.00
46724;BME280;32463;48.298;11.620;2023-05-16T08:21:51;95913.75;;;11.38;100.00
46724;BME280;32463;48.298;11.620;2023-05-16T08:24:18;95909.19;;;11.40;100.00
46724;BME280;32463;48.298;11.620;2023-05-16T08:26:44;95921.88;;;11.35;100.00
46724;BME280;32463;48.298;11.620;2023-05-16T08:29:11;95925.13;;;11.37;100.00
46724;BME280;32463;48.298;11.620;2023-05-16T08:31:38;95929.03;;;11.33;100.00
46724;BME280;32463;48.298;11.620;2023-05-16T08:34:05;95927.72;;;11.37;100.00
46724;BME280;32463;48.298;11.620;2023-05-16T08:36:31;95915.03;;;11.42;100.00
46724;BME280;32463;48.298;11.620;2023-05-16T08:38:59;95908.81;;;11.52;100.00
46724;BME280;32463;48.298;11.620;2023-05-16T08:41:26;95916.53;;;11.60;100.00
46724;BME280;32463;48.298;11.620;2023-05-16T08:43:53;95924.50;;;11.73;100.00
46724;BME280;32463;48.298;11.620;2023-05-16T08:46:21;95926.56;;;11.86;100.00
46724;BME280;32463;48.298;11.620;2023-05-16T08:48:52;95925.94;;;11.98;100.00
46724;BME280;32463;48.298;11.620;2023-05-16T08:51:20;95919.97;;;12.12;100.00
46724;BME280;32463;48.298;11.620;2023-05-16T08:54:02;95912.41;;;12.03;100.00
46724;BME280;32463;48.298;11.620;2023-05-16T08:56:29;95903.53;;;11.97;100.00
46724;BME280;32463;48.298;11.620;2023-05-16T08:58:57;95917.06;;;11.93;100.00
46724;BME280;32463;48.298;11.620;2023-05-16T09:01:23;95920.22;;;11.88;100.00
46724;BME280;32463;48.298;11.620;2023-05-16T09:03:50;95922.69;;;11.96;100.00
46724;BME280;32463;48.298;11.620;2023-05-16T09:06:17;95914.84;;;12.04;100.00
46724;BME280;32463;48.298;11.620;2023-05-16T09:08:44;95914.38;;;12.01;100.00
46724;BME280;32463;48.298;11.620;2023-05-16T09:11:11;95917.44;;;11.90;100.00
46724;BME280;32463;48.298;11.620;2023-05-16T09:13:38;95919.97;;;11.75;100.00
46724;BME280;32463;48.298;11.620;2023-05-16T09:16:12;95916.97;;;11.63;100.00
46724;BME280;32463;48.298;11.620;2023-05-16T09:18:39;95909.50;;;11.45;100.00
46724;BME280;32463;48.298;11.620;2023-05-16T09:21:09;95912.47;;;11.34;100.00
46724;BME280;32463;48.298;11.620;2023-05-16T09:23:35;95905.03;;;11.31;100.00
46724;BME280;32463;48.298;11.620;2023-05-16T09:26:04;95901.75;;;11.37;100.00
46724;BME280;32463;48.298;11.620;2023-05-16T09:28:32;95903.66;;;11.43;100.00
46724;BME280;32463;48.298;11.620;2023-05-16T09:30:58;95904.31;;;11.45;100.00
46724;BME280;32463;48.298;11.620;2023-05-16T09:33:27;95903.47;;;11.68;100.00
46724;BME280;32463;48.298;11.620;2023-05-16T09:36:00;95906.25;;;11.89;100.00
46724;BME280;32463;48.298;11.620;2023-05-16T09:38:27;95912.78;;;12.14;100.00
46724;BME280;32463;48.298;11.620;2023-05-16T09:40:54;95905.91;;;12.22;100.00
46724;BME280;32463;48.298;11.620;2023-05-16T09:43:25;95905.16;;;12.28;100.00
46724;BME280;32463;48.298;11.620;2023-05-16T09:45:52;95903.56;;;12.27;100.00
46724;BME280;32463;48.298;11.620;2023-05-16T09:48:20;95902.13;;;12.09;100.00
46724;BME280;32463;48.298;11.620;2023-05-16T09:50:50;95904.63;;;11.88;100.00
46724;BME280;32463;48.298;11.620;2023-05-16T09:53:27;95912.16;;;11.75;100.00
46724;BME280;32463;48.298;11.620;2023-05-16T09:58:33;95903.97;;;11.48;100.00
46724;BME280;32463;48.298;11.620;2023-05-16T10:01:01;95904.19;;;11.39;100.00
46724;BME280;32463;48.298;11.620;2023-05-16T10:03:28;95906.94;;;11.37;100.00
46724;BME280;32463;48.298;11.620;2023-05-16T10:05:55;95912.47;;;11.34;100.00
46724;BME280;32463;48.298;11.620;2023-05-16T10:08:25;95915.63;;;11.30;100.00
46724;BME280;32463;48.298;11.620;2023-05-16T10:10:54;95909.63;;;11.29;100.00
46724;BME280;32463;48.298;11.620;2023-05-16T10:13:32;95913.13;;;11.36;100.00
46724;BME280;32463;48.298;11.620;2023-05-16T10:16:05;95916.00;;;11.41;100.00
46724;BME280;32463;48.298;11.620;2023-05-16T10:18:32;95923.44;;;11.44;100.00
46724;BME280;32463;48.298;11.620;2023-05-16T10:21:04;95927.94;;;11.51;100.00
46724;BME280;32463;48.298;11.620;2023-05-16T10:23:32;95924.03;;;11.55;100.00
46724;BME280;32463;48.298;11.620;2023-05-16T10:26:01;95923.44;;;11.44;100.00
46724;BME280;32463;48.298;11.620;2023-05-16T10:28:28;95924.72;;;11.48;100.00
46724;BME280;32463;48.298;11.620;2023-05-16T10:30:55;95919.81;;;11.54;100.00
46724;BME280;32463;48.298;11.620;2023-05-16T10:33:21;95919.19;;;11.52;100.00
46724;BME280;32463;48.298;11.620;2023-05-16T10:35:48;95917.22;;;11.54;100.00
46724;BME280;32463;48.298;11.620;2023-05-16T10:38:17;95924.38;;;11.52;100.00
46724;BME280;32463;48.298;11.620;2023-05-16T10:40:45;95937.22;;;11.68;100.00
46724;BME280;32463;48.298;11.620;2023-05-16T10:43:25;95924.84;;;11.55;100.00
46724;BME280;32463;48.298;11.620;2023-05-16T10:45:58;95926.91;;;11.60;100.00
46724;BME280;32463;48.298;11.620;2023-05-16T10:50:55;95928.78;;;11.66;100.00
46724;BME280;32463;48.298;11.620;2023-05-16T10:53:31;95928.94;;;11.50;100.00
46724;BME280;32463;48.298;11.620;2023-05-16T11:01:23;95933.28;;;11.72;100.00
46724;BME280;32463;48.298;11.620;2023-05-16T11:06:23;95927.91;;;11.96;100.00
46724;BME280;32463;48.298;11.620;2023-05-16T11:11:46;95926.13;;;12.11;100.00
46724;BME280;32463;48.298;11.620;2023-05-16T11:14:37;95924.91;;;12.37;100.00
46724;BME280;32463;48.298;11.620;2023-05-16T11:17:15;95920.13;;;12.55;100.00
46724;BME280;32463;48.298;11.620;2023-05-16T11:19:52;95914.41;;;12.45;100.00
46724;BME280;32463;48.298;11.620;2023-05-16T11:22:31;95910.56;;;12.41;100.00
46724;BME280;32463;48.298;11.620;2023-05-16T11:25:03;95910.53;;;12.70;100.00
46724;BME280;32463;48.298;11.620;2023-05-16T11:32:36;95901.09;;;13.20;100.00
46724;BME280;32463;48.298;11.620;2023-05-16T11:35:04;95893.66;;;13.38;100.00
46724;BME280;32463;48.298;11.620;2023-05-16T11:37:33;95903.56;;;13.28;100.00
46724;BME280;32463;48.298;11.620;2023-05-16T11:40:02;95894.13;;;13.48;100.00
46724;BME280;32463;48.298;11.620;2023-05-16T11:42:36;95890.41;;;13.58;100.00
46724;BME280;32463;48.298;11.620;2023-05-16T11:45:07;95890.03;;;13.61;100.00
46724;BME280;32463;48.298;11.620;2023-05-16T11:47:42;95890.75;;;13.76;100.00
46724;BME280;32463;48.298;11.620;2023-05-16T11:50:17;95893.22;;;13.84;100.00
46724;BME280;32463;48.298;11.620;2023-05-16T11:52:49;95898.09;;;13.94;100.00
46724;BME280;32463;48.298;11.620;2023-05-16T11:55:19;95908.41;;;13.74;100.00
46724;BME280;32463;48.298;11.620;2023-05-16T11:57:49;95908.41;;;13.74;100.00
46724;BME280;32463;48.298;11.620;2023-05-16T12:00:21;95903.72;;;13.41;100.00
46724;BME280;32463;48.298;11.620;2023-05-16T12:02:48;95904.81;;;13.32;100.00
46724;BME280;32463;48.298;11.620;2023-05-16T12:05:16;95907.31;;;13.40;100.00
46724;BME280;32463;48.298;11.620;2023-05-16T12:10:12;95900.59;;;13.53;100.00
46724;BME280;32463;48.298;11.620;2023-05-16T12:12:40;95896.63;;;13.57;100.00
46724;BME280;32463;48.298;11.620;2023-05-16T12:15:08;95900.72;;;13.66;100.00
46724;BME280;32463;48.298;11.620;2023-05-16T12:17:36;95899.66;;;13.88;100.00
46724;BME280;32463;48.298;11.620;2023-05-16T12:20:04;95897.59;;;13.56;100.00
46724;BME280;32463;48.298;11.620;2023-05-16T12:22:34;95899.69;;;13.39;100.00
46724;BME280;32463;48.298;11.620;2023-05-16T12:25:29;95903.56;;;13.71;100.00
46724;BME280;32463;48.298;11.620;2023-05-16T12:27:58;95909.59;;;13.78;100.00
46724;BME280;32463;48.298;11.620;2023-05-16T12:30:26;95906.06;;;13.86;100.00
46724;BME280;32463;48.298;11.620;2023-05-16T12:33:03;95893.03;;;14.13;100.00
46724;BME280;32463;48.298;11.620;2023-05-16T12:35:34;95890.41;;;14.13;100.00
46724;BME280;32463;48.298;11.620;2023-05-16T12:38:03;95892.25;;;14.20;100.00
46724;BME280;32463;48.298;11.620;2023-05-16T12:40:32;95896.84;;;14.45;100.00
46724;BME280;32463;48.298;11.620;2023-05-16T12:43:00;95889.38;;;14.83;100.00
46724;BME280;32463;48.298;11.620;2023-05-16T12:45:27;95890.16;;;14.77;100.00
46724;BME280;32463;48.298;11.620;2023-05-16T12:47:54;95887.28;;;15.20;100.00
46724;BME280;32463;48.298;11.620;2023-05-16T12:50:20;95882.91;;;15.54;100.00
46724;BME280;32463;48.298;11.620;2023-05-16T12:52:52;95878.06;;;16.03;100.00
46724;BME280;32463;48.298;11.620;2023-05-16T12:55:20;95881.88;;;16.07;100.00
46724;BME280;32463;48.298;11.620;2023-05-16T12:57:47;95883.09;;;16.11;100.00
46724;BME280;32463;48.298;11.620;2023-05-16T13:00:16;95879.50;;;15.60;100.00
46724;BME280;32463;48.298;11.620;2023-05-16T13:02:44;95888.69;;;15.23;100.00
46724;BME280;32463;48.298;11.620;2023-05-16T13:05:11;95899.22;;;14.12;100.00
46724;BME280;32463;48.298;11.620;2023-05-16T13:07:38;95907.66;;;13.37;100.00
46724;BME280;32463;48.298;11.620;2023-05-16T13:10:09;95909.06;;;12.82;100.00
46724;BME280;32463;48.298;11.620;2023-05-16T13:12:40;95913.03;;;11.90;100.00
46724;BME280;32463;48.298;11.620;2023-05-16T13:15:08;95900.22;;;11.28;100.00
46724;BME280;32463;48.298;11.620;2023-05-16T13:17:35;95905.22;;;11.07;100.00
46724;BME280;32463;48.298;11.620;2023-05-16T13:20:03;95910.75;;;11.04;100.00
46724;BME280;32463;48.298;11.620;2023-05-16T13:22:32;95903.94;;;11.03;100.00